EW5391 Annapolis MD US current weather conditions

sailwx.info

Wind from 225 at 1 knots gusting 3

Air temperature 2.8° C
Dewpoint -0.7° C

Last reported at 2020-Jan-27 12:06 UTC.
Time now 2020-Jan-27 13:12 UTC

Location: N 39°03' W 076°25'.
View on Google Maps.

See reports from other nearby stations

  
Tides and Currents Weather Stations Pressure Air Temp Water Temp Dewpoint Dewpoint Depression Visibility Wind Speed Wind Dir Waves Ship Positions
date/time (UTC)wind fromknots sea level pressurealtimeterstation pressurevisibilityair tempwater tempwave heightnotes
2020-Jan-27 12:06 225 1 gusting 3 2.8
2020-Jan-27 11:56 202 2 gusting 5 2.8
2020-Jan-27 11:46 270 2 gusting 3 2.8
2020-Jan-27 11:36 202 1 gusting 2 2.8
2020-Jan-27 11:26 225 1 gusting 2 2.8
2020-Jan-27 11:16 180 1 gusting 5 2.8
2020-Jan-27 11:06 202 1 gusting 3 2.8
2020-Jan-27 10:56 202 0 gusting 1 2.8
2020-Jan-27 10:46 202 0 gusting 2 2.8
2020-Jan-27 10:36 2.8
2020-Jan-27 10:26 225 0 gusting 2 2.8
2020-Jan-27 10:16 2.8
2020-Jan-27 10:06 225 0 gusting 1 3.3
2020-Jan-27 09:56 225 0 gusting 2 3.3
2020-Jan-27 09:46 225 1 gusting 2 3.3
2020-Jan-27 09:36 180 1 gusting 4 3.3
2020-Jan-27 09:26 202 1 gusting 2 3.3
2020-Jan-27 09:16 180 0 gusting 1 3.3
2020-Jan-27 09:06 225 2 gusting 4 3.3
2020-Jan-27 08:56 225 0 gusting 2 2.8
2020-Jan-27 08:46 225 0 gusting 2 2.8
2020-Jan-27 08:36 225 0 gusting 3 2.8
2020-Jan-27 08:26 180 0 gusting 0 2.8
2020-Jan-27 08:16 202 0 gusting 0 2.8
2020-Jan-27 08:06 2.8
2020-Jan-27 07:56 2.8
2020-Jan-27 07:46 202 0 gusting 0 2.2
2020-Jan-27 07:36 2.2
2020-Jan-27 07:26 1.7
2020-Jan-27 07:16 247 0 gusting 0 1.1
2020-Jan-27 07:06 1.1
2020-Jan-27 06:56 247 0 gusting 0 1.1
2020-Jan-27 06:46 247 0 gusting 1 1.1
2020-Jan-27 06:36 247 0 gusting 1 1.7
2020-Jan-27 06:26 247 0 gusting 0 2.2
2020-Jan-27 06:16 2.8
2020-Jan-27 06:06 2.8
2020-Jan-27 05:56 3.3
2020-Jan-27 05:46 3.9
2020-Jan-27 05:36 3.9
2020-Jan-27 05:26 3.9
2020-Jan-27 05:16 247 0 gusting 1 3.9
2020-Jan-27 05:06 247 0 gusting 1 4.4
2020-Jan-27 04:56 270 1 gusting 1 4.4
2020-Jan-27 04:46 270 1 gusting 2 4.4
2020-Jan-27 04:36 270 0 gusting 1 5.0
2020-Jan-27 04:26 270 1 gusting 2 5.0
2020-Jan-27 04:16 270 2 gusting 3 5.0
2020-Jan-27 04:06 270 0 gusting 1 5.6
2020-Jan-27 03:56 270 1 gusting 3 6.1
2020-Jan-27 03:46 270 6 gusting 8 6.1
2020-Jan-27 03:36 270 3 gusting 5 6.1
2020-Jan-27 03:26 247 6 gusting 7 6.1
2020-Jan-27 03:16 270 5 gusting 7 6.1
2020-Jan-27 03:06 292 8 gusting 10 6.1
2020-Jan-27 02:56 292 13 gusting 20 6.1
2020-Jan-27 02:46 270 9 gusting 10 6.1
2020-Jan-27 02:36 292 11 gusting 13 6.1
2020-Jan-27 02:26 270 11 gusting 13 6.1
2020-Jan-27 02:16 292 9 gusting 13 6.7
2020-Jan-27 02:06 292 11 gusting 13 6.7
2020-Jan-27 01:56 270 10 gusting 13 6.7
2020-Jan-27 01:46 270 6 gusting 7 6.7
2020-Jan-27 01:36 292 12 gusting 14 6.7
2020-Jan-27 01:26 292 8 gusting 11 6.7
2020-Jan-27 01:16 270 6 gusting 9 6.7
2020-Jan-27 01:06 292 6 gusting 7 6.7
2020-Jan-27 00:56 270 6 gusting 7 6.7
2020-Jan-27 00:46 292 6 gusting 7 6.7
2020-Jan-27 00:36 315 9 gusting 10 7.2
2020-Jan-27 00:26 292 3 gusting 6 7.2
2020-Jan-27 00:16 270 3 gusting 5 7.2
2020-Jan-27 00:06 270 6 gusting 6 7.2
2020-Jan-26 23:56 247 3 gusting 4 7.2
2020-Jan-26 23:46 270 4 gusting 6 7.2
2020-Jan-26 23:36 292 3 gusting 5 7.2
2020-Jan-26 23:26 270 5 gusting 7 7.2
2020-Jan-26 23:16 270 2 gusting 3 7.2
2020-Jan-26 23:06 292 4 gusting 6 7.8
2020-Jan-26 22:56 270 5 gusting 9 7.8
2020-Jan-26 22:46 292 4 gusting 6 7.8
2020-Jan-26 22:36 270 6 gusting 8 7.8
2020-Jan-26 22:26 247 6 gusting 9 7.8
2020-Jan-26 22:16 292 7 gusting 10 7.8
2020-Jan-26 22:06 292 7 gusting 10 7.8
2020-Jan-26 21:56 270 3 gusting 5 7.8
2020-Jan-26 21:46 292 1 gusting 2 7.8
2020-Jan-26 21:36 292 4 gusting 6 7.8
2020-Jan-26 21:26 270 7 gusting 10 8.3
2020-Jan-26 21:16 292 6 gusting 8 8.3
2020-Jan-26 21:06 270 10 gusting 13 8.3
2020-Jan-26 20:56 270 6 gusting 9 8.3
2020-Jan-26 20:46 270 3 gusting 6 8.3
2020-Jan-26 20:36 247 6 gusting 7 8.3
2020-Jan-26 20:26 270 7 gusting 10 8.9
2020-Jan-26 20:16 270 9 gusting 12 8.9
2020-Jan-26 20:06 292 6 gusting 11 8.9
2020-Jan-26 19:56 292 4 gusting 6 8.9
2020-Jan-26 19:46 292 6 gusting 8 8.9
2020-Jan-26 19:36 292 8 gusting 12 9.4
2020-Jan-26 19:26 247 7 gusting 12 9.4
2020-Jan-26 19:16 270 6 gusting 9 8.9
2020-Jan-26 19:06 292 7 gusting 10 8.9
2020-Jan-26 18:56 292 7 gusting 10 8.9
2020-Jan-26 18:46 292 7 gusting 11 8.9
2020-Jan-26 18:36 270 6 gusting 8 8.9
2020-Jan-26 18:26 292 6 gusting 9 8.3
2020-Jan-26 18:16 315 8 gusting 10 8.3
2020-Jan-26 18:06 292 9 gusting 12 8.3
2020-Jan-26 17:56 292 11 gusting 13 8.3
2020-Jan-26 17:46 292 13 gusting 14 7.8
2020-Jan-26 17:36 292 10 gusting 12 7.8
2020-Jan-26 17:26 292 13 gusting 17 8.3
2020-Jan-26 17:16 315 11 gusting 17 8.3
2020-Jan-26 17:06 292 10 gusting 13 8.3
2020-Jan-26 16:56 270 11 gusting 14 8.3
2020-Jan-26 16:46 315 12 gusting 15 8.3
2020-Jan-26 16:36 292 11 gusting 14 8.3
2020-Jan-26 16:26 270 10 gusting 13 8.3
2020-Jan-26 16:16 292 9 gusting 12 8.3
2020-Jan-26 16:06 270 12 gusting 14 8.3
2020-Jan-26 15:56 270 6 gusting 8 8.3
2020-Jan-26 15:46 270 8 gusting 13 8.3
2020-Jan-26 15:36 270 10 gusting 14 7.8
2020-Jan-26 15:26 270 10 gusting 13 7.8
2020-Jan-26 15:16 270 6 gusting 10 7.2
2020-Jan-26 15:06 292 7 gusting 9 7.2
2020-Jan-26 14:56 270 5 gusting 7 7.2
2020-Jan-26 14:46 270 7 gusting 9 7.2
2020-Jan-26 14:36 270 5 gusting 7 7.2
2020-Jan-26 14:26 225 6 gusting 10 7.8
2020-Jan-26 14:16 270 6 gusting 9 7.2
2020-Jan-26 14:06 270 6 gusting 8 7.2
2020-Jan-26 13:56 270 6 gusting 7 7.2
2020-Jan-26 13:46 270 6 gusting 10 7.2
2020-Jan-26 13:36 247 5 gusting 8 7.2
2020-Jan-26 13:26 270 5 gusting 7 6.7
2020-Jan-26 13:16 247 4 gusting 6 6.7
2020-Jan-26 13:06 247 4 gusting 6 6.1
2020-Jan-26 12:56 247 5 gusting 6 6.1
2020-Jan-26 12:46 270 6 gusting 9 5.6
2020-Jan-26 12:36 270 6 gusting 7 5.6
2020-Jan-26 12:26 270 2 gusting 3 4.4
2020-Jan-26 12:16 270 1 gusting 3 4.4
2020-Jan-26 12:06 247 1 gusting 2 4.4
2020-Jan-26 11:56 247 0 gusting 1 4.4
2020-Jan-26 11:46 225 0 gusting 2 5.0
2020-Jan-26 11:36 247 2 gusting 5 5.0
2020-Jan-26 11:26 247 1 gusting 3 5.6
2020-Jan-26 11:16 270 1 gusting 2 6.1
2020-Jan-26 11:06 270 3 gusting 5 6.1
2020-Jan-26 10:56 270 5 gusting 6 6.1
2020-Jan-26 10:46 270 6 gusting 9 6.1
2020-Jan-26 10:36 292 7 gusting 8 6.7
2020-Jan-26 10:26 292 9 gusting 12 6.7
2020-Jan-26 10:16 292 6 gusting 10 6.1
2020-Jan-26 10:06 292 7 gusting 9 6.1
2020-Jan-26 09:56 270 5 gusting 6 5.6
2020-Jan-26 09:46 270 6 gusting 9 5.6
2020-Jan-26 09:36 270 6 gusting 7 5.6
2020-Jan-26 09:26 270 5 gusting 6 5.6
2020-Jan-26 09:16 292 4 gusting 9 4.4
2020-Jan-26 09:06 270 5 gusting 7 4.4
2020-Jan-26 08:56 225 1 gusting 2 3.9
2020-Jan-26 08:46 270 1 gusting 3 3.9
2020-Jan-26 08:36 292 3 gusting 6 3.3
2020-Jan-26 08:26 247 1 gusting 2 3.3
2020-Jan-26 08:16 247 1 gusting 2 3.3
2020-Jan-26 08:06 247 1 gusting 2 2.8
2020-Jan-26 07:56 247 0 gusting 1 3.3
2020-Jan-26 07:46 247 0 gusting 1 3.9
2020-Jan-26 07:36 247 0 gusting 1 3.3
2020-Jan-26 07:26 270 0 gusting 1 3.3
2020-Jan-26 07:16 270 0 gusting 1 3.9
2020-Jan-26 07:06 247 0 gusting 0 4.4
2020-Jan-26 06:56 247 0 gusting 1 5.0
2020-Jan-26 06:46 247 0 gusting 1 5.0
2020-Jan-26 06:36 247 0 gusting 1 5.0
2020-Jan-26 06:26 225 0 gusting 1 5.0
2020-Jan-26 06:16 5.6
2020-Jan-26 06:06 247 1 gusting 2 6.1
2020-Jan-26 05:56 247 2 gusting 2 6.1
2020-Jan-26 05:46 270 1 gusting 2 6.1
2020-Jan-26 05:36 270 4 gusting 6 6.7
2020-Jan-26 05:26 292 6 gusting 7 6.7
2020-Jan-26 05:16 270 6 gusting 7 7.2
2020-Jan-26 05:06 292 6 gusting 7 7.2
2020-Jan-26 04:56 270 5 gusting 6 7.2
2020-Jan-26 04:46 292 8 gusting 10 7.2
2020-Jan-26 04:36 270 6 gusting 9 7.2
2020-Jan-26 04:26 270 4 gusting 6 7.2
2020-Jan-26 04:16 270 6 gusting 8 7.2
2020-Jan-26 04:06 292 4 gusting 6 7.2
2020-Jan-26 03:56 270 5 gusting 6 7.2
2020-Jan-26 03:46 270 2 gusting 5 7.2
2020-Jan-26 03:36 270 3 gusting 5 7.2
2020-Jan-26 03:26 270 5 gusting 6 7.2
2020-Jan-26 03:16 270 3 gusting 6 7.2
2020-Jan-26 03:06 247 3 gusting 5 7.2
2020-Jan-26 02:56 247 2 gusting 3 7.2
2020-Jan-26 02:46 270 1 gusting 3 7.8
2020-Jan-26 02:36 270 2 gusting 5 7.8
2020-Jan-26 02:26 270 2 gusting 5 7.2
2020-Jan-26 02:16 270 1 gusting 2 6.1
2020-Jan-26 02:06 6.1
2020-Jan-26 01:56 292 0 gusting 1 6.1
2020-Jan-26 01:46 292 1 gusting 2 6.1
2020-Jan-26 01:36 270 1 gusting 1 6.1
2020-Jan-26 01:26 270 1 gusting 1 6.7
2020-Jan-26 01:16 270 0 gusting 1 7.2
2020-Jan-26 01:06 7.8
2020-Jan-26 00:56 270 0 gusting 0 7.8
2020-Jan-26 00:46 270 1 gusting 2 8.3
2020-Jan-26 00:36 270 2 gusting 3 8.3
2020-Jan-26 00:26 270 2 gusting 3 7.8
2020-Jan-26 00:16 315 2 gusting 3 7.8
2020-Jan-26 00:06 270 3 gusting 6 8.3
2020-Jan-25 23:56 270 1 gusting 2 8.3
2020-Jan-25 23:46 270 4 gusting 6 8.3
2020-Jan-25 23:36 270 1 gusting 2 8.3
2020-Jan-25 23:26 247 2 gusting 3 8.3
2020-Jan-25 23:16 270 2 gusting 3 8.9
2020-Jan-25 23:06 270 6 gusting 7 8.9
2020-Jan-25 22:56 292 3 gusting 4 9.4
2020-Jan-25 22:46 270 3 gusting 6 9.4
2020-Jan-25 22:36 292 6 gusting 7 9.4
2020-Jan-25 22:26 270 7 gusting 11 10.0
2020-Jan-25 22:16 292 7 gusting 10 10.0
2020-Jan-25 22:06 292 7 gusting 10 10.0
2020-Jan-25 21:56 270 4 gusting 6 10.0
2020-Jan-25 21:46 270 5 gusting 7 10.0
2020-Jan-25 21:36 292 6 gusting 10 10.0
2020-Jan-25 21:26 292 6 gusting 8 10.0
2020-Jan-25 21:16 292 10 gusting 12 10.0
2020-Jan-25 21:06 292 11 gusting 13 10.0
2020-Jan-25 20:56 292 8 gusting 11 10.0
2020-Jan-25 20:46 292 12 gusting 14 10.6
2020-Jan-25 20:36 292 6 gusting 8 10.6
2020-Jan-25 20:26 270 6 gusting 9 10.6
2020-Jan-25 20:16 270 9 gusting 11 10.6
2020-Jan-25 20:06 292 7 gusting 12 10.6
2020-Jan-25 19:56 292 7 gusting 10 11.1
2020-Jan-25 19:46 247 6 gusting 8 11.1
2020-Jan-25 19:36 270 6 gusting 7 10.6
2020-Jan-25 19:26 292 6 gusting 9 10.6
2020-Jan-25 19:16 270 4 gusting 6 10.6
2020-Jan-25 19:06 247 6 gusting 7 10.0
2020-Jan-25 18:56 247 3 gusting 6 10.6
2020-Jan-25 18:46 270 6 gusting 8 10.0
2020-Jan-25 18:36 270 6 gusting 8 10.6
2020-Jan-25 18:26 247 3 gusting 5 10.0
2020-Jan-25 18:16 292 6 gusting 8 10.0
2020-Jan-25 18:06 247 6 gusting 8 10.0
2020-Jan-25 17:56 270 4 gusting 6 10.0
2020-Jan-25 17:46 270 3 gusting 5 10.0
2020-Jan-25 17:36 270 4 gusting 6 9.4
2020-Jan-25 17:26 292 3 gusting 6 9.4
2020-Jan-25 17:16 247 3 gusting 4 9.4
2020-Jan-25 17:06 292 6 gusting 7 8.9
2020-Jan-25 16:56 270 4 gusting 7 8.9
2020-Jan-25 16:46 247 5 gusting 8 8.9
2020-Jan-25 16:36 247 3 gusting 6 8.9
2020-Jan-25 16:26 270 2 gusting 5 8.9
2020-Jan-25 16:16 270 3 gusting 6 8.9
2020-Jan-25 16:06 247 4 gusting 6 8.9
2020-Jan-25 15:56 270 5 gusting 6 8.9
2020-Jan-25 15:46 270 3 gusting 5 8.3
2020-Jan-25 15:36 270 3 gusting 5 7.8
2020-Jan-25 15:26 292 1 gusting 2 7.8
2020-Jan-25 15:16 6.7
2020-Jan-25 15:06 6.7
2020-Jan-25 14:56 6.7
2020-Jan-25 14:46 6.1
2020-Jan-25 14:36 6.7
2020-Jan-25 14:26 022 4 gusting 4 6.7
2020-Jan-25 14:16 6.1
2020-Jan-25 14:06 6.1
2020-Jan-25 13:56 022 3 gusting 4 6.1
2020-Jan-25 13:46 022 8 gusting 10 6.7
2020-Jan-25 13:36 6.1
2020-Jan-25 13:26 7.2
2020-Jan-25 13:16 7.8
2020-Jan-25 13:06 337 7 gusting 10 7.8